sensor_id;sensor_type;location;lat;lon;timestamp;pressure;altitude;pressure_sealevel;temperature;humidity
20983;BME280;10650;51.528;6.748;2023-04-27T00:01:47;101823.22;;;7.12;63.44
20983;BME280;10650;51.528;6.748;2023-04-27T00:04:16;101821.53;;;7.16;63.83
20983;BME280;10650;51.528;6.748;2023-04-27T00:06:44;101821.53;;;7.16;63.69
20983;BME280;10650;51.528;6.748;2023-04-27T00:09:12;101821.53;;;7.16;63.76
20983;BME280;10650;51.528;6.748;2023-04-27T00:11:41;101833.91;;;7.14;63.97
20983;BME280;10650;51.528;6.748;2023-04-27T00:14:09;101835.59;;;7.12;63.93
20983;BME280;10650;51.528;6.748;2023-04-27T00:16:36;101833.75;;;7.09;64.23
20983;BME280;10650;51.528;6.748;2023-04-27T00:19:04;101831.97;;;7.06;64.92
20983;BME280;10650;51.528;6.748;2023-04-27T00:21:35;101833.59;;;7.01;65.20
20983;BME280;10650;51.528;6.748;2023-04-27T00:24:03;101829.06;;;6.97;64.39
20983;BME280;10650;51.528;6.748;2023-04-27T00:26:31;101831.63;;;6.92;64.92
20983;BME280;10650;51.528;6.748;2023-04-27T00:28:59;101834.19;;;6.88;65.14
20983;BME280;10650;51.528;6.748;2023-04-27T00:31:27;101840.28;;;6.84;65.07
20983;BME280;10650;51.528;6.748;2023-04-27T00:33:55;101833.09;;;6.80;65.23
20983;BME280;10650;51.528;6.748;2023-04-27T00:36:23;101848.09;;;6.78;65.14
20983;BME280;10650;51.528;6.748;2023-04-27T00:38:52;101839.09;;;6.71;65.35
20983;BME280;10650;51.528;6.748;2023-04-27T00:41:20;101848.72;;;6.67;65.86
20983;BME280;10650;51.528;6.748;2023-04-27T00:43:48;101845.91;;;6.61;65.76
20983;BME280;10650;51.528;6.748;2023-04-27T00:46:16;101851.19;;;6.60;65.73
20983;BME280;10650;51.528;6.748;2023-04-27T00:48:45;101841.44;;;6.58;66.06
20983;BME280;10650;51.528;6.748;2023-04-27T00:51:13;101844.03;;;6.57;65.90
20983;BME280;10650;51.528;6.748;2023-04-27T00:53:42;101847.59;;;6.57;66.47
20983;BME280;10650;51.528;6.748;2023-04-27T00:56:11;101855.53;;;6.56;66.31
20983;BME280;10650;51.528;6.748;2023-04-27T00:58:39;101857.19;;;6.51;66.94
20983;BME280;10650;51.528;6.748;2023-04-27T01:01:08;101851.75;;;6.46;66.78
20983;BME280;10650;51.528;6.748;2023-04-27T01:03:37;101849.78;;;6.39;66.73
20983;BME280;10650;51.528;6.748;2023-04-27T01:06:06;101851.28;;;6.28;66.99
20983;BME280;10650;51.528;6.748;2023-04-27T01:08:33;101857.47;;;6.28;67.09
20983;BME280;10650;51.528;6.748;2023-04-27T01:11:02;101855.63;;;6.26;67.38
20983;BME280;10650;51.528;6.748;2023-04-27T01:13:31;101845.97;;;6.28;67.42
20983;BME280;10650;51.528;6.748;2023-04-27T01:15:59;101847.69;;;6.27;67.68
20983;BME280;10650;51.528;6.748;2023-04-27T01:18:26;101853.94;;;6.28;67.36
20983;BME280;10650;51.528;6.748;2023-04-27T01:20:54;101854.78;;;6.27;66.69
20983;BME280;10650;51.528;6.748;2023-04-27T01:23:23;101851.31;;;6.29;67.13
20983;BME280;10650;51.528;6.748;2023-04-27T01:25:51;101854.81;;;6.28;67.42
20983;BME280;10650;51.528;6.748;2023-04-27T01:28:19;101869.81;;;6.26;67.60
20983;BME280;10650;51.528;6.748;2023-04-27T01:30:47;101867.91;;;6.20;67.37
20983;BME280;10650;51.528;6.748;2023-04-27T01:33:15;101867.78;;;6.17;67.54
20983;BME280;10650;51.528;6.748;2023-04-27T01:35:43;101858.69;;;6.08;67.58
20983;BME280;10650;51.528;6.748;2023-04-27T01:38:11;101862.31;;;6.11;67.84
20983;BME280;10650;51.528;6.748;2023-04-27T01:40:40;101859.72;;;6.13;67.65
20983;BME280;10650;51.528;6.748;2023-04-27T01:43:08;101859.66;;;6.11;67.53
20983;BME280;10650;51.528;6.748;2023-04-27T01:45:35;101852.59;;;6.12;68.08
20983;BME280;10650;51.528;6.748;2023-04-27T01:48:03;101861.47;;;6.12;67.58
20983;BME280;10650;51.528;6.748;2023-04-27T01:50:31;101864.91;;;6.08;67.75
20983;BME280;10650;51.528;6.748;2023-04-27T01:52:59;101869.69;;;5.91;67.93
20983;BME280;10650;51.528;6.748;2023-04-27T01:55:27;101875.97;;;5.93;68.10
20983;BME280;10650;51.528;6.748;2023-04-27T01:57:56;101872.25;;;5.88;68.60
20983;BME280;10650;51.528;6.748;2023-04-27T02:00:24;101879.09;;;5.80;68.55
20983;BME280;10650;51.528;6.748;2023-04-27T02:02:52;101879.78;;;5.72;68.68
20983;BME280;10650;51.528;6.748;2023-04-27T02:05:23;101871.19;;;5.81;68.48
20983;BME280;10650;51.528;6.748;2023-04-27T02:07:50;101872.66;;;5.71;69.10
20983;BME280;10650;51.528;6.748;2023-04-27T02:10:18;101871.00;;;5.75;69.55
20983;BME280;10650;51.528;6.748;2023-04-27T02:12:47;101883.50;;;5.79;69.01
20983;BME280;10650;51.528;6.748;2023-04-27T02:15:17;101880.09;;;5.83;69.00
20983;BME280;10650;51.528;6.748;2023-04-27T02:17:44;101878.38;;;5.85;68.79
20983;BME280;10650;51.528;6.748;2023-04-27T02:20:12;101881.81;;;5.83;68.55
20983;BME280;10650;51.528;6.748;2023-04-27T02:22:40;101873.69;;;5.77;68.93
20983;BME280;10650;51.528;6.748;2023-04-27T02:25:10;101870.13;;;5.75;69.02
20983;BME280;10650;51.528;6.748;2023-04-27T02:27:39;101870.72;;;5.66;69.24
20983;BME280;10650;51.528;6.748;2023-04-27T02:30:09;101865.22;;;5.58;69.25
20983;BME280;10650;51.528;6.748;2023-04-27T02:32:40;101867.78;;;5.55;69.43
20983;BME280;10650;51.528;6.748;2023-04-27T02:35:08;101866.88;;;5.54;69.69
20983;BME280;10650;51.528;6.748;2023-04-27T02:37:36;101870.34;;;5.52;69.75
20983;BME280;10650;51.528;6.748;2023-04-27T02:40:05;101870.38;;;5.53;70.05
20983;BME280;10650;51.528;6.748;2023-04-27T02:42:33;101866.88;;;5.54;69.81
20983;BME280;10650;51.528;6.748;2023-04-27T02:45:05;101872.88;;;5.47;70.32
20983;BME280;10650;51.528;6.748;2023-04-27T02:47:33;101871.22;;;5.52;70.33
20983;BME280;10650;51.528;6.748;2023-04-27T02:50:03;101867.81;;;5.57;70.19
20983;BME280;10650;51.528;6.748;2023-04-27T02:52:31;101863.41;;;5.57;69.76
20983;BME280;10650;51.528;6.748;2023-04-27T02:54:58;101863.44;;;5.59;70.18
20983;BME280;10650;51.528;6.748;2023-04-27T02:57:27;101857.25;;;5.58;69.68
20983;BME280;10650;51.528;6.748;2023-04-27T02:59:55;101857.22;;;5.57;70.16
20983;BME280;10650;51.528;6.748;2023-04-27T03:02:23;101852.72;;;5.54;69.87
20983;BME280;10650;51.528;6.748;2023-04-27T03:04:51;101846.47;;;5.52;70.11
20983;BME280;10650;51.528;6.748;2023-04-27T03:07:23;101847.38;;;5.52;70.45
20983;BME280;10650;51.528;6.748;2023-04-27T03:09:51;101840.22;;;5.50;70.38
20983;BME280;10650;51.528;6.748;2023-04-27T03:12:19;101839.25;;;5.46;70.34
20983;BME280;10650;51.528;6.748;2023-04-27T03:14:47;101840.06;;;5.44;70.61
20983;BME280;10650;51.528;6.748;2023-04-27T03:17:14;101837.22;;;5.37;70.19
20983;BME280;10650;51.528;6.748;2023-04-27T03:20:07;101841.31;;;5.26;71.11
20983;BME280;10650;51.528;6.748;2023-04-27T03:22:37;101844.78;;;5.25;71.20
20983;BME280;10650;51.528;6.748;2023-04-27T03:25:05;101835.97;;;5.25;71.03
20983;BME280;10650;51.528;6.748;2023-04-27T03:27:33;101844.78;;;5.25;71.53
20983;BME280;10650;51.528;6.748;2023-04-27T03:30:02;101849.91;;;5.19;71.63
20983;BME280;10650;51.528;6.748;2023-04-27T03:32:30;101845.28;;;5.12;71.42
20983;BME280;10650;51.528;6.748;2023-04-27T03:34:57;101848.81;;;5.12;71.41
20983;BME280;10650;51.528;6.748;2023-04-27T03:37:25;101854.16;;;5.14;71.50
20983;BME280;10650;51.528;6.748;2023-04-27T03:39:54;101852.44;;;5.14;71.75
20983;BME280;10650;51.528;6.748;2023-04-27T03:42:25;101855.84;;;5.10;71.81
20983;BME280;10650;51.528;6.748;2023-04-27T03:45:00;101849.66;;;5.11;71.42
20983;BME280;10650;51.528;6.748;2023-04-27T03:47:32;101856.53;;;5.05;71.48
20983;BME280;10650;51.528;6.748;2023-04-27T03:49:59;101860.88;;;5.02;72.01
20983;BME280;10650;51.528;6.748;2023-04-27T03:52:27;101860.13;;;5.07;71.80
20983;BME280;10650;51.528;6.748;2023-04-27T03:54:56;101856.63;;;5.08;71.79
20983;BME280;10650;51.528;6.748;2023-04-27T03:57:24;101865.41;;;5.07;71.78
20983;BME280;10650;51.528;6.748;2023-04-27T03:59:52;101861.84;;;5.05;71.36
20983;BME280;10650;51.528;6.748;2023-04-27T04:02:20;101871.50;;;5.04;71.98
20983;BME280;10650;51.528;6.748;2023-04-27T04:04:48;101875.88;;;5.02;71.94
20983;BME280;10650;51.528;6.748;2023-04-27T04:07:16;101885.63;;;5.03;71.49
20983;BME280;10650;51.528;6.748;2023-04-27T04:09:44;101880.38;;;5.05;71.90
20983;BME280;10650;51.528;6.748;2023-04-27T04:12:13;101873.22;;;5.02;71.88
20983;BME280;10650;51.528;6.748;2023-04-27T04:14:41;101883.03;;;5.05;71.74
20983;BME280;10650;51.528;6.748;2023-04-27T04:17:09;101887.41;;;5.04;71.65
20983;BME280;10650;51.528;6.748;2023-04-27T04:19:37;101885.59;;;5.01;71.87
20983;BME280;10650;51.528;6.748;2023-04-27T04:22:05;101885.63;;;5.03;71.92
20983;BME280;10650;51.528;6.748;2023-04-27T04:24:32;101889.06;;;5.00;71.75
20983;BME280;10650;51.528;6.748;2023-04-27T04:27:00;101884.66;;;5.01;71.79
20983;BME280;10650;51.528;6.748;2023-04-27T04:29:29;101887.41;;;5.04;71.58
20983;BME280;10650;51.528;6.748;2023-04-27T04:31:58;101881.31;;;5.07;71.93
20983;BME280;10650;51.528;6.748;2023-04-27T04:34:26;101876.09;;;5.10;71.65
20983;BME280;10650;51.528;6.748;2023-04-27T04:36:54;101881.41;;;5.10;71.44
20983;BME280;10650;51.528;6.748;2023-04-27T04:39:23;101885.00;;;5.12;71.76
20983;BME280;10650;51.528;6.748;2023-04-27T04:41:52;101884.25;;;5.16;71.69
20983;BME280;10650;51.528;6.748;2023-04-27T04:44:20;101889.63;;;5.17;71.44
20983;BME280;10650;51.528;6.748;2023-04-27T04:46:49;101882.59;;;5.19;71.66
20983;BME280;10650;51.528;6.748;2023-04-27T04:49:17;101887.94;;;5.21;71.49
20983;BME280;10650;51.528;6.748;2023-04-27T04:51:45;101891.56;;;5.23;71.76
20983;BME280;10650;51.528;6.748;2023-04-27T04:54:13;101885.28;;;5.21;71.58
20983;BME280;10650;51.528;6.748;2023-04-27T04:56:41;101894.25;;;5.25;71.57
20983;BME280;10650;51.528;6.748;2023-04-27T04:59:09;101889.88;;;5.27;71.94
20983;BME280;10650;51.528;6.748;2023-04-27T05:01:37;101896.09;;;5.27;71.99
20983;BME280;10650;51.528;6.748;2023-04-27T05:04:06;101898.97;;;5.35;72.27
20983;BME280;10650;51.528;6.748;2023-04-27T05:06:34;101897.50;;;5.45;72.01
20983;BME280;10650;51.528;6.748;2023-04-27T05:09:03;101904.94;;;5.57;71.06
20983;BME280;10650;51.528;6.748;2023-04-27T05:11:31;101903.47;;;5.66;70.95
20983;BME280;10650;51.528;6.748;2023-04-27T05:13:59;101908.13;;;5.75;70.86
20983;BME280;10650;51.528;6.748;2023-04-27T05:16:28;101908.34;;;5.83;70.41
20983;BME280;10650;51.528;6.748;2023-04-27T05:18:57;101915.63;;;5.90;70.51
20983;BME280;10650;51.528;6.748;2023-04-27T05:21:26;101915.91;;;5.98;70.27
20983;BME280;10650;51.528;6.748;2023-04-27T05:23:57;101918.72;;;6.04;70.33
20983;BME280;10650;51.528;6.748;2023-04-27T05:26:26;101917.13;;;6.09;70.18
20983;BME280;10650;51.528;6.748;2023-04-27T05:28:54;101921.72;;;6.16;69.83
20983;BME280;10650;51.528;6.748;2023-04-27T05:31:22;101930.75;;;6.23;69.49
20983;BME280;10650;51.528;6.748;2023-04-27T05:33:50;101924.66;;;6.27;69.52
20983;BME280;10650;51.528;6.748;2023-04-27T05:36:18;101929.22;;;6.31;69.23
20983;BME280;10650;51.528;6.748;2023-04-27T05:38:48;101933.78;;;6.37;69.15
20983;BME280;10650;51.528;6.748;2023-04-27T05:41:17;101932.22;;;6.44;69.37
20983;BME280;10650;51.528;6.748;2023-04-27T05:43:45;101929.75;;;6.51;69.18
20983;BME280;10650;51.528;6.748;2023-04-27T05:46:42;101923.84;;;6.63;68.59
20983;BME280;10650;51.528;6.748;2023-04-27T05:49:51;101923.34;;;6.77;68.77
20983;BME280;10650;51.528;6.748;2023-04-27T05:52:59;101935.09;;;6.86;67.65
20983;BME280;10650;51.528;6.748;2023-04-27T05:55:33;101931.81;;;6.97;67.98
20983;BME280;10650;51.528;6.748;2023-04-27T05:58:01;101935.53;;;7.05;67.77
20983;BME280;10650;51.528;6.748;2023-04-27T06:00:34;101938.38;;;7.13;67.25
20983;BME280;10650;51.528;6.748;2023-04-27T06:03:06;101944.63;;;7.15;65.93
20983;BME280;10650;51.528;6.748;2023-04-27T06:05:35;101948.31;;;7.20;66.45
20983;BME280;10650;51.528;6.748;2023-04-27T06:08:03;101942.25;;;7.25;66.11
20983;BME280;10650;51.528;6.748;2023-04-27T06:10:33;101942.41;;;7.33;65.72
20983;BME280;10650;51.528;6.748;2023-04-27T06:13:02;101949.69;;;7.42;65.22
20983;BME280;10650;51.528;6.748;2023-04-27T06:15:31;101940.84;;;7.41;64.62
20983;BME280;10650;51.528;6.748;2023-04-27T06:17:59;101935.66;;;7.48;64.30
20983;BME280;10650;51.528;6.748;2023-04-27T06:20:27;101932.22;;;7.52;64.30
20983;BME280;10650;51.528;6.748;2023-04-27T06:22:56;101928.84;;;7.60;63.99
20983;BME280;10650;51.528;6.748;2023-04-27T06:25:25;101932.63;;;7.70;63.80
20983;BME280;10650;51.528;6.748;2023-04-27T06:27:57;101936.22;;;7.72;62.63
20983;BME280;10650;51.528;6.748;2023-04-27T06:30:25;101935.41;;;7.76;62.01
20983;BME280;10650;51.528;6.748;2023-04-27T06:32:53;101939.91;;;7.79;62.00
20983;BME280;10650;51.528;6.748;2023-04-27T06:35:21;101937.22;;;7.79;61.88
20983;BME280;10650;51.528;6.748;2023-04-27T06:37:49;101939.19;;;7.88;62.42
20983;BME280;10650;51.528;6.748;2023-04-27T06:40:18;101929.56;;;7.93;62.09
20983;BME280;10650;51.528;6.748;2023-04-27T06:42:48;101936.75;;;7.97;61.70
20983;BME280;10650;51.528;6.748;2023-04-27T06:45:18;101932.47;;;8.05;61.09
20983;BME280;10650;51.528;6.748;2023-04-27T06:47:46;101930.84;;;8.13;61.21
20983;BME280;10650;51.528;6.748;2023-04-27T06:59:27;101929.78;;;8.48;60.13
20983;BME280;10650;51.528;6.748;2023-04-27T07:02:24;101924.56;;;8.53;58.33
20983;BME280;10650;51.528;6.748;2023-04-27T07:05:08;101921.88;;;8.53;58.30
20983;BME280;10650;51.528;6.748;2023-04-27T07:11:11;101936.16;;;8.56;57.72
20983;BME280;10650;51.528;6.748;2023-04-27T07:14:44;101929.13;;;8.60;57.57
20983;BME280;10650;51.528;6.748;2023-04-27T07:43:26;101929.59;;;9.43;54.52
20983;BME280;10650;51.528;6.748;2023-04-27T07:46:11;101918.97;;;9.46;53.38
20983;BME280;10650;51.528;6.748;2023-04-27T07:48:41;101926.13;;;9.50;53.64
20983;BME280;10650;51.528;6.748;2023-04-27T07:51:13;101923.53;;;9.56;53.21
20983;BME280;10650;51.528;6.748;2023-04-27T07:53:43;101925.38;;;9.59;52.42
20983;BME280;10650;51.528;6.748;2023-04-27T07:56:13;101922.53;;;9.48;52.06
20983;BME280;10650;51.528;6.748;2023-04-27T07:58:43;101917.22;;;9.51;52.44
20983;BME280;10650;51.528;6.748;2023-04-27T08:01:12;101916.47;;;9.61;52.72
20983;BME280;10650;51.528;6.748;2023-04-27T08:03:39;101914.88;;;9.74;52.81
20983;BME280;10650;51.528;6.748;2023-04-27T08:06:08;101919.53;;;9.87;52.35
20983;BME280;10650;51.528;6.748;2023-04-27T08:08:37;101912.50;;;9.96;52.59
20983;BME280;10650;51.528;6.748;2023-04-27T08:11:08;101922.38;;;10.03;52.41
20983;BME280;10650;51.528;6.748;2023-04-27T08:13:36;101912.66;;;10.10;51.87
20983;BME280;10650;51.528;6.748;2023-04-27T08:16:06;101913.63;;;10.15;52.26
20983;BME280;10650;51.528;6.748;2023-04-27T08:18:34;101904.75;;;10.16;51.44
20983;BME280;10650;51.528;6.748;2023-04-27T08:21:02;101907.47;;;10.24;51.54
20983;BME280;10650;51.528;6.748;2023-04-27T08:23:31;101906.66;;;10.31;51.42
20983;BME280;10650;51.528;6.748;2023-04-27T08:25:59;101906.72;;;10.34;50.57
20983;BME280;10650;51.528;6.748;2023-04-27T08:28:27;101896.94;;;10.34;50.14
20983;BME280;10650;51.528;6.748;2023-04-27T08:30:57;101901.53;;;10.46;50.46
20983;BME280;10650;51.528;6.748;2023-04-27T08:33:53;101897.16;;;10.54;49.92
20983;BME280;10650;51.528;6.748;2023-04-27T08:36:22;101897.25;;;10.68;50.33
20983;BME280;10650;51.528;6.748;2023-04-27T08:38:51;101892.06;;;10.84;49.71
20983;BME280;10650;51.528;6.748;2023-04-27T08:41:20;101897.38;;;10.82;48.37
20983;BME280;10650;51.528;6.748;2023-04-27T08:43:49;101891.22;;;10.89;47.81
20983;BME280;10650;51.528;6.748;2023-04-27T08:46:19;101893.91;;;10.94;47.82
20983;BME280;10650;51.528;6.748;2023-04-27T08:48:49;101893.16;;;11.09;48.34
20983;BME280;10650;51.528;6.748;2023-04-27T08:51:20;101885.19;;;11.23;47.07
20983;BME280;10650;51.528;6.748;2023-04-27T08:53:49;101894.16;;;11.28;46.04
20983;BME280;10650;51.528;6.748;2023-04-27T08:56:20;101893.31;;;11.32;45.85
20983;BME280;10650;51.528;6.748;2023-04-27T08:58:49;101894.28;;;11.47;46.13
20983;BME280;10650;51.528;6.748;2023-04-27T09:01:17;101893.44;;;11.62;46.21
20983;BME280;10650;51.528;6.748;2023-04-27T09:03:45;101892.59;;;11.72;45.55
20983;BME280;10650;51.528;6.748;2023-04-27T09:06:14;101889.97;;;11.76;43.74
20983;BME280;10650;51.528;6.748;2023-04-27T09:08:45;101881.03;;;11.74;43.38
20983;BME280;10650;51.528;6.748;2023-04-27T09:11:15;101885.50;;;11.71;42.47
20983;BME280;10650;51.528;6.748;2023-04-27T09:13:43;101874.78;;;11.75;43.05
20983;BME280;10650;51.528;6.748;2023-04-27T09:16:12;101881.91;;;11.70;41.75
20983;BME280;10650;51.528;6.748;2023-04-27T09:18:42;101866.75;;;11.77;42.19
20983;BME280;10650;51.528;6.748;2023-04-27T09:21:21;101873.06;;;11.88;42.01
20983;BME280;10650;51.528;6.748;2023-04-27T09:23:51;101868.66;;;12.00;41.92
20983;BME280;10650;51.528;6.748;2023-04-27T09:26:20;101867.78;;;12.07;41.36
20983;BME280;10650;51.528;6.748;2023-04-27T09:28:50;101870.53;;;12.19;41.66
20983;BME280;10650;51.528;6.748;2023-04-27T09:31:19;101869.63;;;12.31;41.37
20983;BME280;10650;51.528;6.748;2023-04-27T09:33:53;101867.84;;;12.35;41.20
20983;BME280;10650;51.528;6.748;2023-04-27T09:36:22;101869.63;;;12.42;40.99
20983;BME280;10650;51.528;6.748;2023-04-27T09:38:53;101872.34;;;12.48;40.45
20983;BME280;10650;51.528;6.748;2023-04-27T09:41:21;101861.59;;;12.45;40.11
20983;BME280;10650;51.528;6.748;2023-04-27T09:43:49;101854.47;;;12.44;39.34
20983;BME280;10650;51.528;6.748;2023-04-27T09:46:21;101855.34;;;12.41;39.29
20983;BME280;10650;51.528;6.748;2023-04-27T09:48:50;101860.72;;;12.51;39.58
20983;BME280;10650;51.528;6.748;2023-04-27T09:51:19;101856.28;;;12.67;39.95
20983;BME280;10650;51.528;6.748;2023-04-27T09:53:50;101863.41;;;12.83;39.43
20983;BME280;10650;51.528;6.748;2023-04-27T09:56:28;101851.78;;;13.04;39.27
20983;BME280;10650;51.528;6.748;2023-04-27T09:59:09;101846.41;;;13.18;38.67
20983;BME280;10650;51.528;6.748;2023-04-27T10:01:44;101841.91;;;13.22;37.59
20983;BME280;10650;51.528;6.748;2023-04-27T10:04:22;101847.28;;;13.20;37.06
20983;BME280;10650;51.528;6.748;2023-04-27T10:06:59;101838.31;;;13.23;37.85
20983;BME280;10650;51.528;6.748;2023-04-27T10:09:36;101836.50;;;13.26;36.50
20983;BME280;10650;51.528;6.748;2023-04-27T10:12:16;101827.63;;;13.18;36.03
20983;BME280;10650;51.528;6.748;2023-04-27T10:14:52;101831.19;;;13.09;35.51
20983;BME280;10650;51.528;6.748;2023-04-27T10:17:28;101835.63;;;13.15;36.22
20983;BME280;10650;51.528;6.748;2023-04-27T10:19:58;101818.66;;;13.14;35.73
20983;BME280;10650;51.528;6.748;2023-04-27T10:22:36;101819.53;;;13.24;36.20
20983;BME280;10650;51.528;6.748;2023-04-27T10:25:22;101824.00;;;13.35;36.78
20983;BME280;10650;51.528;6.748;2023-04-27T10:27:59;101817.72;;;13.34;35.83
20983;BME280;10650;51.528;6.748;2023-04-27T10:30:31;101815.94;;;13.35;35.36
20983;BME280;10650;51.528;6.748;2023-04-27T10:33:04;101806.97;;;13.42;35.37
20983;BME280;10650;51.528;6.748;2023-04-27T10:35:33;101810.53;;;13.44;36.03
20983;BME280;10650;51.528;6.748;2023-04-27T10:38:06;101809.59;;;13.59;36.73
20983;BME280;10650;51.528;6.748;2023-04-27T10:40:34;101811.31;;;13.71;36.51
20983;BME280;10650;51.528;6.748;2023-04-27T10:43:11;101806.84;;;13.76;35.73
20983;BME280;10650;51.528;6.748;2023-04-27T10:45:40;101806.84;;;13.76;36.44
20983;BME280;10650;51.528;6.748;2023-04-27T10:48:11;101807.69;;;13.79;35.59
20983;BME280;10650;51.528;6.748;2023-04-27T10:50:40;101806.75;;;13.87;36.06
20983;BME280;10650;51.528;6.748;2023-04-27T10:53:10;101796.81;;;14.02;36.14
20983;BME280;10650;51.528;6.748;2023-04-27T10:55:38;101805.66;;;14.23;36.62
20983;BME280;10650;51.528;6.748;2023-04-27T10:58:06;101811.88;;;14.31;34.79
20983;BME280;10650;51.528;6.748;2023-04-27T11:00:38;101798.44;;;14.31;34.70
20983;BME280;10650;51.528;6.748;2023-04-27T11:03:13;101798.34;;;14.39;35.25
20983;BME280;10650;51.528;6.748;2023-04-27T11:05:43;101799.19;;;14.49;35.11
20983;BME280;10650;51.528;6.748;2023-04-27T11:08:13;101793.75;;;14.53;34.77
20983;BME280;10650;51.528;6.748;2023-04-27T11:10:43;101790.13;;;14.62;35.30
20983;BME280;10650;51.528;6.748;2023-04-27T11:13:12;101789.13;;;14.71;34.55
20983;BME280;10650;51.528;6.748;2023-04-27T11:15:44;101792.63;;;14.82;34.91
20983;BME280;10650;51.528;6.748;2023-04-27T11:18:13;101784.56;;;14.82;32.98
20983;BME280;10650;51.528;6.748;2023-04-27T11:20:43;101790.06;;;14.68;33.78
20983;BME280;10650;51.528;6.748;2023-04-27T11:23:22;101789.19;;;14.66;33.44
20983;BME280;10650;51.528;6.748;2023-04-27T11:25:50;101801.72;;;14.70;33.67
20983;BME280;10650;51.528;6.748;2023-04-27T11:28:19;101784.69;;;14.67;32.37
20983;BME280;10650;51.528;6.748;2023-04-27T11:30:56;101790.06;;;14.67;33.97
20983;BME280;10650;51.528;6.748;2023-04-27T11:33:24;101787.41;;;14.65;32.73
20983;BME280;10650;51.528;6.748;2023-04-27T11:35:53;101776.69;;;14.58;31.96
20983;BME280;10650;51.528;6.748;2023-04-27T11:38:22;101776.66;;;14.61;33.53
20983;BME280;10650;51.528;6.748;2023-04-27T11:41:01;101771.22;;;14.73;34.10
20983;BME280;10650;51.528;6.748;2023-04-27T11:43:30;101768.38;;;14.85;34.29
20983;BME280;10650;51.528;6.748;2023-04-27T11:46:03;101772.84;;;14.88;33.10
20983;BME280;10650;51.528;6.748;2023-04-27T11:48:31;101762.91;;;14.95;33.67
20983;BME280;10650;51.528;6.748;2023-04-27T11:50:59;101770.88;;;15.02;33.77
20983;BME280;10650;51.528;6.748;2023-04-27T11:53:31;101769.94;;;15.08;33.27
20983;BME280;10650;51.528;6.748;2023-04-27T11:56:00;101761.91;;;15.03;33.10
20983;BME280;10650;51.528;6.748;2023-04-27T11:58:32;101760.16;;;14.99;31.06
20983;BME280;10650;51.528;6.748;2023-04-27T12:01:00;101747.88;;;14.74;29.96
20983;BME280;10650;51.528;6.748;2023-04-27T12:03:30;101754.16;;;14.73;31.17
20983;BME280;10650;51.528;6.748;2023-04-27T12:05:58;101747.81;;;14.83;32.11
20983;BME280;10650;51.528;6.748;2023-04-27T12:08:47;101748.53;;;14.96;31.75
20983;BME280;10650;51.528;6.748;2023-04-27T12:11:14;101741.19;;;15.09;32.24
20983;BME280;10650;51.528;6.748;2023-04-27T12:13:42;101738.31;;;15.26;32.33
20983;BME280;10650;51.528;6.748;2023-04-27T12:16:10;101739.16;;;15.31;30.73
20983;BME280;10650;51.528;6.748;2023-04-27T12:18:41;101733.78;;;15.29;30.71
20983;BME280;10650;51.528;6.748;2023-04-27T12:21:09;101733.66;;;15.38;31.88
20983;BME280;10650;51.528;6.748;2023-04-27T12:23:37;101725.44;;;15.51;31.82
20983;BME280;10650;51.528;6.748;2023-04-27T12:26:06;101726.16;;;15.62;31.48
20983;BME280;10650;51.528;6.748;2023-04-27T12:28:34;101718.00;;;15.67;30.79
20983;BME280;10650;51.528;6.748;2023-04-27T12:31:04;101726.44;;;15.42;30.66
20983;BME280;10650;51.528;6.748;2023-04-27T12:33:32;101726.72;;;15.22;31.31
20983;BME280;10650;51.528;6.748;2023-04-27T12:36:02;101735.88;;;15.04;30.36
20983;BME280;10650;51.528;6.748;2023-04-27T12:38:30;101720.66;;;15.04;31.09
20983;BME280;10650;51.528;6.748;2023-04-27T12:40:58;101716.81;;;15.22;31.03
20983;BME280;10650;51.528;6.748;2023-04-27T12:43:28;101718.34;;;15.44;31.14
20983;BME280;10650;51.528;6.748;2023-04-27T12:45:56;101722.63;;;15.58;30.41
20983;BME280;10650;51.528;6.748;2023-04-27T12:48:24;101717.16;;;15.65;30.22
20983;BME280;10650;51.528;6.748;2023-04-27T12:50:53;101703.56;;;15.72;29.86
20983;BME280;10650;51.528;6.748;2023-04-27T12:53:24;101708.88;;;15.79;28.82
20983;BME280;10650;51.528;6.748;2023-04-27T12:55:52;101700.06;;;15.66;28.72
20983;BME280;10650;51.528;6.748;2023-04-27T12:58:23;101708.16;;;15.64;29.04
20983;BME280;10650;51.528;6.748;2023-04-27T13:00:51;101707.44;;;15.51;29.58
20983;BME280;10650;51.528;6.748;2023-04-27T13:03:18;101701.00;;;15.65;29.61
20983;BME280;10650;51.528;6.748;2023-04-27T13:05:47;101711.53;;;15.83;30.01
20983;BME280;10650;51.528;6.748;2023-04-27T13:08:14;101716.78;;;15.91;29.49
20983;BME280;10650;51.528;6.748;2023-04-27T13:10:44;101707.63;;;16.01;30.76
20983;BME280;10650;51.528;6.748;2023-04-27T13:13:12;101698.47;;;16.12;30.81
20983;BME280;10650;51.528;6.748;2023-04-27T13:15:41;101705.53;;;16.22;30.66
20983;BME280;10650;51.528;6.748;2023-04-27T13:18:09;101711.00;;;16.16;29.09
20983;BME280;10650;51.528;6.748;2023-04-27T13:20:40;101706.69;;;16.04;29.04
20983;BME280;10650;51.528;6.748;2023-04-27T13:23:10;101707.81;;;15.92;28.20
20983;BME280;10650;51.528;6.748;2023-04-27T13:25:37;101700.69;;;15.88;29.06
20983;BME280;10650;51.528;6.748;2023-04-27T13:28:07;101705.16;;;15.87;29.44
20983;BME280;10650;51.528;6.748;2023-04-27T13:30:35;101693.25;;;16.02;29.79
20983;BME280;10650;51.528;6.748;2023-04-27T13:33:03;101686.75;;;16.14;29.91
20983;BME280;10650;51.528;6.748;2023-04-27T13:35:47;101681.19;;;16.25;30.24
20983;BME280;10650;51.528;6.748;2023-04-27T13:38:16;101676.50;;;16.36;30.00
20983;BME280;10650;51.528;6.748;2023-04-27T13:40:44;101684.56;;;16.38;29.60
20983;BME280;10650;51.528;6.748;2023-04-27T13:43:15;101680.88;;;16.43;29.54
20983;BME280;10650;51.528;6.748;2023-04-27T13:45:44;101679.06;;;16.42;29.13
20983;BME280;10650;51.528;6.748;2023-04-27T13:48:12;101676.47;;;16.38;28.08
20983;BME280;10650;51.528;6.748;2023-04-27T13:50:40;101680.34;;;16.21;28.20